Time;durP1;ratioP1;P1;durP2;ratioP2;P2;SDS_P1;SDS_P2;PMS_P1;PMS_P2;Temp;Humidity;BMP_temperature;BMP_pressure;BME280_temperature;BME280_humidity;BME280_pressure;Samples;Min_cycle;Max_cycle;Signal;HPM_P1;HPM_P2
2021/03/27 00:01:23;;;;;;;5.18;3.00;;;6.70;99.90;;;;;;5146912;27;20043;-75
2021/03/27 00:04:02;;;;;;;3.75;2.58;;;6.70;99.90;;;;;;5119026;27;20475;-77
2021/03/27 00:06:44;;;;;;;3.88;2.30;;;6.60;99.90;;;;;;5128592;27;20083;-77
2021/03/27 00:09:10;;;;;;;5.45;2.47;;;6.60;99.90;;;;;;5128956;27;20039;-78
2021/03/27 00:11:50;;;;;;;4.40;2.70;;;6.50;99.90;;;;;;5112767;27;20051;-80
2021/03/27 00:14:39;;;;;;;4.57;2.30;;;6.40;99.90;;;;;;5127816;27;20066;-80
2021/03/27 00:17:18;;;;;;;5.18;2.75;;;6.40;99.90;;;;;;5114147;27;20051;-78
2021/03/27 00:19:59;;;;;;;4.50;2.10;;;6.40;99.90;;;;;;5112926;27;20036;-78
2021/03/27 00:22:35;;;;;;;4.63;2.00;;;6.20;99.90;;;;;;5130908;27;20047;-75
2021/03/27 00:25:11;;;;;;;3.05;2.08;;;6.20;99.90;;;;;;5142910;27;20038;-77
2021/03/27 00:28:06;;;;;;;3.75;1.80;;;6.10;99.90;;;;;;5098358;27;20048;-80
2021/03/27 00:30:50;;;;;;;3.00;1.77;;;6.00;99.90;;;;;;5127306;27;20082;-82
2021/03/27 00:33:20;;;;;;;3.60;1.70;;;5.80;99.90;;;;;;5132552;27;20150;-77
2021/03/27 00:36:11;;;;;;;2.75;1.60;;;5.70;99.90;;;;;;5134163;27;20041;-78
2021/03/27 00:38:48;;;;;;;4.40;1.80;;;5.70;99.90;;;;;;5133149;27;20452;-80
2021/03/27 00:41:18;;;;;;;4.28;2.10;;;5.70;99.90;;;;;;5133926;27;20483;-78
2021/03/27 00:43:54;;;;;;;2.88;1.85;;;5.60;99.90;;;;;;5143517;27;20037;-81
2021/03/27 00:46:21;;;;;;;2.20;1.60;;;5.60;99.90;;;;;;5106850;27;20248;-81
2021/03/27 00:49:19;;;;;;;6.47;1.85;;;5.60;99.90;;;;;;5122230;27;20039;-78
2021/03/27 00:52:16;;;;;;;5.90;1.98;;;5.50;99.90;;;;;;5119834;27;20064;-84
2021/03/27 00:54:45;;;;;;;5.53;1.92;;;5.60;99.90;;;;;;5104292;27;20051;-78
2021/03/27 00:57:42;;;;;;;3.65;2.47;;;5.50;99.90;;;;;;5129699;27;20035;-80
2021/03/27 01:00:35;;;;;;;4.43;2.35;;;5.60;99.90;;;;;;5096816;28;20047;-79
2021/03/27 01:03:06;;;;;;;3.55;2.05;;;5.60;99.90;;;;;;5135996;27;20038;-77
2021/03/27 01:05:33;;;;;;;4.95;2.70;;;5.60;99.90;;;;;;5146135;27;20054;-77
2021/03/27 01:08:01;;;;;;;5.30;2.58;;;5.50;99.90;;;;;;5143011;27;20033;-79
2021/03/27 01:10:34;;;;;;;4.35;2.72;;;5.60;99.90;;;;;;5145792;27;20114;-81
2021/03/27 01:13:07;;;;;;;4.68;2.70;;;5.50;99.90;;;;;;5124986;27;20075;-79
2021/03/27 01:15:53;;;;;;;7.05;2.83;;;5.60;99.90;;;;;;5141948;27;20036;-78
2021/03/27 01:18:24;;;;;;;6.13;2.72;;;5.60;99.90;;;;;;5137034;27;20364;-79
2021/03/27 01:20:57;;;;;;;6.90;2.97;;;5.50;99.90;;;;;;5105264;27;20047;-81
2021/03/27 01:23:24;;;;;;;4.88;3.30;;;5.50;99.90;;;;;;5135693;27;20031;-77
2021/03/27 01:25:56;;;;;;;4.63;2.50;;;5.50;99.90;;;;;;5146867;27;20402;-81
2021/03/27 01:28:44;;;;;;;4.25;2.67;;;6.40;99.90;;;;;;5137069;27;20103;-78
2021/03/27 01:31:29;;;;;;;4.45;2.72;;;5.50;99.90;;;;;;5123200;27;20035;-82
2021/03/27 01:34:04;;;;;;;5.18;2.22;;;5.60;99.90;;;;;;5135797;27;20022;-82
2021/03/27 01:36:40;;;;;;;7.15;2.85;;;5.60;99.90;;;;;;5140375;27;20035;-80
2021/03/27 01:39:15;;;;;;;4.38;2.47;;;5.60;99.90;;;;;;5133155;27;20091;-78
2021/03/27 01:42:04;;;;;;;4.60;2.17;;;5.60;99.90;;;;;;5137060;27;20043;-76
2021/03/27 01:44:46;;;;;;;5.47;2.55;;;5.70;99.90;;;;;;5143260;27;20042;-78
2021/03/27 01:47:48;;;;;;;4.45;2.40;;;6.10;99.90;;;;;;5136063;27;20042;-79
2021/03/27 01:50:32;;;;;;;3.25;2.22;;;5.70;99.90;;;;;;5132297;27;20027;-79
2021/03/27 01:53:16;;;;;;;5.93;2.30;;;5.60;99.90;;;;;;5103099;27;20130;-81
2021/03/27 01:56:10;;;;;;;5.05;2.42;;;5.60;99.90;;;;;;5104154;27;20039;-82
2021/03/27 01:58:45;;;;;;;7.03;2.42;;;5.60;99.90;;;;;;5119257;27;20042;-78
2021/03/27 02:01:15;;;;;;;3.88;2.38;;;5.80;99.90;;;;;;5132867;27;20107;-76
2021/03/27 02:03:53;;;;;;;4.28;2.25;;;5.80;99.90;;;;;;5127497;27;20130;-81
2021/03/27 02:06:45;;;;;;;3.30;2.15;;;5.60;99.90;;;;;;5132558;27;20058;-79
2021/03/27 02:09:31;;;;;;;7.07;2.30;;;5.60;99.90;;;;;;5146766;27;20078;-81
2021/03/27 02:11:56;;;;;;;5.90;2.30;;;5.60;99.90;;;;;;5111801;28;20043;-79
2021/03/27 02:14:58;;;;;;;5.10;2.65;;;5.60;99.90;;;;;;5143808;27;20035;-77
2021/03/27 02:17:34;;;;;;;3.75;2.20;;;5.60;99.90;;;;;;5081017;28;20048;-78
2021/03/27 02:20:19;;;;;;;;;;;5.60;99.90;;;;;;5124882;27;20054;-78
2021/03/27 02:23:27;;;;;;;5.10;2.33;;;5.50;99.90;;;;;;5130698;27;20347;-79
2021/03/27 02:26:24;;;;;;;7.18;2.10;;;5.50;99.90;;;;;;5099323;28;20031;-79
2021/03/27 02:28:58;;;;;;;10.17;2.60;;;5.40;99.90;;;;;;5124604;27;20034;-78
2021/03/27 02:31:38;;;;;;;6.03;2.47;;;5.40;99.90;;;;;;5122095;28;20031;-81
2021/03/27 02:34:23;;;;;;;3.63;2.35;;;5.40;99.90;;;;;;5125133;28;20118;-81
2021/03/27 02:37:13;;;;;;;6.93;2.30;;;5.40;99.90;;;;;;5126329;28;20043;-78
2021/03/27 02:39:44;;;;;;;4.07;2.45;;;5.40;99.90;;;;;;5122947;28;20035;-79
2021/03/27 02:42:10;;;;;;;4.38;2.78;;;5.50;99.90;;;;;;5129368;28;20498;-76
2021/03/27 02:44:39;;;;;;;7.07;2.80;;;5.40;99.90;;;;;;5112946;27;20035;-82
2021/03/27 02:47:25;;;;;;;6.35;3.10;;;5.40;99.90;;;;;;5131947;27;20039;-79
2021/03/27 02:50:12;;;;;;;7.43;3.67;;;5.40;99.90;;;;;;5115261;27;20051;-79
2021/03/27 02:53:16;;;;;;;7.28;3.95;;;5.40;99.90;;;;;;5130471;28;20036;-79
2021/03/27 02:56:01;;;;;;;7.43;3.88;;;5.50;99.90;;;;;;5130770;27;20039;-82
2021/03/27 02:58:41;;;;;;;5.40;4.03;;;5.50;99.90;;;;;;5127282;28;20039;-81
2021/03/27 03:01:19;;;;;;;9.23;4.88;;;5.50;99.90;;;;;;5130832;27;20167;-79
2021/03/27 03:03:57;;;;;;;13.23;4.43;;;5.50;99.90;;;;;;5137034;27;20075;-82
2021/03/27 03:06:40;;;;;;;6.60;4.45;;;5.50;99.90;;;;;;5135166;27;20118;-80
2021/03/27 03:09:26;;;;;;;8.23;4.32;;;5.50;99.90;;;;;;5133582;27;20134;-82
2021/03/27 03:11:55;;;;;;;8.88;4.13;;;5.50;99.90;;;;;;5123339;27;20368;-82
2021/03/27 03:14:47;;;;;;;7.70;5.30;;;5.50;99.90;;;;;;5130223;28;20039;-79
2021/03/27 03:17:35;;;;;;;9.38;5.05;;;5.70;99.90;;;;;;5102753;28;20044;-78
2021/03/27 03:20:43;;;;;;;9.52;5.10;;;5.50;99.90;;;;;;5094022;28;20046;-83
2021/03/27 03:23:24;;;;;;;12.40;6.47;;;5.60;99.90;;;;;;5113897;28;20119;-79
2021/03/27 03:25:59;;;;;;;10.93;5.93;;;5.60;99.90;;;;;;5111858;28;20027;-81
2021/03/27 03:28:48;;;;;;;9.45;5.85;;;5.70;99.90;;;;;;5126543;27;20042;-77
2021/03/27 03:31:36;;;;;;;12.60;6.75;;;5.70;99.90;;;;;;5138569;27;20043;-81
2021/03/27 03:34:33;;;;;;;17.50;7.07;;;5.70;99.90;;;;;;5113690;27;20046;-81
2021/03/27 03:37:11;;;;;;;11.93;7.67;;;5.80;99.90;;;;;;5111840;28;20027;-77
2021/03/27 03:40:05;;;;;;;10.25;7.30;;;5.90;99.90;;;;;;5138942;27;20035;-79
2021/03/27 03:42:40;;;;;;;11.20;7.38;;;6.00;99.90;;;;;;5115549;27;20376;-77
2021/03/27 03:45:15;;;;;;;10.93;7.13;;;6.10;99.90;;;;;;5115960;27;20038;-80
2021/03/27 03:48:04;;;;;;;13.95;7.55;;;6.10;99.90;;;;;;5119469;27;20448;-81
2021/03/27 03:50:52;;;;;;;14.85;7.57;;;6.20;99.90;;;;;;5124644;27;20529;-82
2021/03/27 03:53:42;;;;;;;14.27;7.38;;;6.20;99.90;;;;;;5134768;27;20039;-81
2021/03/27 03:56:30;;;;;;;11.55;6.70;;;6.10;99.90;;;;;;5136566;27;20040;-81
2021/03/27 03:59:31;;;;;;;14.23;8.15;;;6.10;99.90;;;;;;5106797;27;20027;-80
2021/03/27 04:02:19;;;;;;;11.73;8.50;;;6.10;99.90;;;;;;5091100;28;20043;-79
2021/03/27 04:04:54;;;;;;;20.17;7.65;;;6.00;99.90;;;;;;5116164;27;20144;-79
2021/03/27 04:07:33;;;;;;;14.45;7.43;;;5.90;99.90;;;;;;5115224;27;20118;-82
2021/03/27 04:10:21;;;;;;;14.27;7.18;;;6.10;99.90;;;;;;5137186;27;20440;-79
2021/03/27 04:13:09;;;;;;;14.02;6.95;;;5.80;99.90;;;;;;5104474;27;20047;-81
2021/03/27 04:15:47;;;;;;;12.98;7.45;;;5.80;99.90;;;;;;5120143;27;20107;-81
2021/03/27 04:18:39;;;;;;;13.75;6.35;;;5.80;99.90;;;;;;5116201;27;20043;-79
2021/03/27 04:21:05;;;;;;;15.50;6.00;;;5.90;99.90;;;;;;5110699;27;20038;-74
2021/03/27 04:23:46;;;;;;;14.57;5.93;;;5.80;99.90;;;;;;5121375;27;20110;-82
2021/03/27 04:26:35;;;;;;;14.90;5.70;;;5.80;99.90;;;;;;5105715;27;20039;-81
2021/03/27 04:29:04;;;;;;;14.68;5.63;;;5.80;99.90;;;;;;5149304;27;20488;-78
2021/03/27 04:31:50;;;;;;;10.07;5.07;;;5.80;99.90;;;;;;5141457;27;20046;-82
2021/03/27 04:34:41;;;;;;;10.13;4.32;;;5.70;99.90;;;;;;5116029;27;20083;-80
2021/03/27 04:37:38;;;;;;;11.30;4.20;;;5.80;99.90;;;;;;5073078;27;20153;-78
2021/03/27 04:40:07;;;;;;;12.73;4.65;;;5.60;99.90;;;;;;5101373;27;20098;-79
2021/03/27 04:42:46;;;;;;;11.05;4.15;;;5.60;99.90;;;;;;5124901;27;20035;-82
2021/03/27 04:45:26;;;;;;;9.02;4.10;;;5.60;99.90;;;;;;5117579;27;20042;-80
2021/03/27 04:47:58;;;;;;;7.03;3.58;;;5.60;99.90;;;;;;5113695;27;20122;-78
2021/03/27 04:50:50;;;;;;;9.82;3.88;;;5.60;99.90;;;;;;5117563;27;20051;-80
2021/03/27 04:53:36;;;;;;;14.95;5.28;;;5.50;99.90;;;;;;5132639;27;20042;-78
2021/03/27 04:56:31;;;;;;;10.60;4.47;;;5.40;99.90;;;;;;5144996;27;20043;-82
2021/03/27 04:59:38;;;;;;;9.82;4.00;;;5.30;99.90;;;;;;5100012;27;20399;-82
2021/03/27 05:02:14;;;;;;;11.02;3.90;;;5.20;99.90;;;;;;5087428;27;20053;-79
2021/03/27 05:04:58;;;;;;;15.70;4.55;;;5.10;99.90;;;;;;5143242;27;20416;-77
2021/03/27 05:07:44;;;;;;;9.80;4.30;;;5.10;99.90;;;;;;5125312;27;20035;-80
2021/03/27 05:10:13;;;;;;;10.40;3.92;;;5.20;99.90;;;;;;5138447;27;20480;-80
2021/03/27 05:12:41;;;;;;;11.40;3.88;;;5.20;99.90;;;;;;5103114;27;20050;-76
2021/03/27 05:15:19;;;;;;;11.27;4.20;;;5.20;99.90;;;;;;5134098;27;20057;-80
2021/03/27 05:17:45;;;;;;;14.90;4.82;;;5.20;99.90;;;;;;5138014;27;20098;-80
2021/03/27 05:20:22;;;;;;;12.32;4.22;;;5.30;99.90;;;;;;5120973;27;20161;-81
2021/03/27 05:22:51;;;;;;;9.35;3.75;;;5.30;99.90;;;;;;5111642;27;20445;-80
2021/03/27 05:25:35;;;;;;;11.10;3.97;;;5.30;99.90;;;;;;5130681;27;20421;-80
2021/03/27 05:28:08;;;;;;;10.98;3.88;;;5.30;99.90;;;;;;5141356;27;20034;-81
2021/03/27 05:30:46;;;;;;;9.05;3.72;;;5.30;99.90;;;;;;5114642;27;20051;-80
2021/03/27 05:33:24;;;;;;;12.02;3.15;;;5.30;99.90;;;;;;5114012;27;20035;-77
2021/03/27 05:36:20;;;;;;;10.35;3.25;;;5.30;99.90;;;;;;5113759;27;20468;-78
2021/03/27 05:38:55;;;;;;;9.55;3.15;;;5.40;99.90;;;;;;5114833;27;20115;-78
2021/03/27 05:41:39;;;;;;;9.02;3.58;;;5.40;99.90;;;;;;5132651;27;20114;-77
2021/03/27 05:44:36;;;;;;;13.40;3.55;;;5.40;99.90;;;;;;5122820;27;20464;-77
2021/03/27 05:47:52;;;;;;;9.68;3.55;;;5.50;99.90;;;;;;5131037;27;20043;-82
2021/03/27 05:50:42;;;;;;;8.32;3.40;;;5.60;99.90;;;;;;5029531;28;20053;-81
2021/03/27 05:53:39;;;;;;;6.32;3.22;;;5.60;99.90;;;;;;5028192;28;20145;-80
2021/03/27 05:56:42;;;;;;;4.60;2.28;;;5.20;99.90;;;;;;5117271;27;20133;-79
2021/03/27 05:59:36;;;;;;;5.13;2.30;;;4.60;99.90;;;;;;5120893;27;20060;-81
2021/03/27 06:02:21;;;;;;;7.53;2.35;;;4.20;99.90;;;;;;5122115;27;20100;-78
2021/03/27 06:05:02;;;;;;;4.78;2.78;;;4.10;99.90;;;;;;5142463;27;20440;-79
2021/03/27 06:07:49;;;;;;;5.40;2.92;;;4.00;99.90;;;;;;5130373;27;20036;-77
2021/03/27 06:10:33;;;;;;;8.95;3.75;;;4.00;99.90;;;;;;5132799;27;20059;-81
2021/03/27 06:13:21;;;;;;;6.45;3.75;;;4.10;99.90;;;;;;5123417;27;20055;-81
2021/03/27 06:16:05;;;;;;;8.10;3.97;;;4.30;99.90;;;;;;5115374;27;20038;-82
2021/03/27 06:19:08;;;;;;;5.30;3.28;;;4.60;99.90;;;;;;5114434;28;20039;-82
2021/03/27 06:22:11;;;;;;;7.88;3.70;;;4.10;99.90;;;;;;5112159;28;20135;-80
2021/03/27 06:25:08;;;;;;;6.18;3.30;;;4.50;99.90;;;;;;5130031;27;20037;-81
2021/03/27 06:28:04;;;;;;;6.50;3.08;;;4.50;99.90;;;;;;5117815;28;20373;-79
2021/03/27 06:31:16;;;;;;;5.75;3.03;;;4.50;99.90;;;;;;5116142;28;20035;-80
2021/03/27 06:33:46;;;;;;;5.32;3.05;;;4.60;99.90;;;;;;5095872;28;20392;-81
2021/03/27 06:36:30;;;;;;;6.10;3.35;;;5.00;99.90;;;;;;5110971;28;20042;-80
2021/03/27 06:39:24;;;;;;;8.80;3.22;;;4.50;99.90;;;;;;5116196;27;20035;-80
2021/03/27 06:42:03;;;;;;;8.48;3.30;;;4.60;99.90;;;;;;5107253;27;20066;-79
2021/03/27 06:44:53;;;;;;;8.65;3.42;;;4.60;99.90;;;;;;5106609;28;20051;-80
2021/03/27 06:47:22;;;;;;;6.85;3.38;;;4.60;99.90;;;;;;5119119;28;20068;-81
2021/03/27 06:50:16;;;;;;;10.85;3.28;;;4.60;99.90;;;;;;5103743;28;20044;-81
2021/03/27 06:53:09;;;;;;;11.07;3.88;;;4.50;99.90;;;;;;5113232;28;20035;-81
2021/03/27 06:56:06;;;;;;;8.38;4.05;;;4.50;99.90;;;;;;5123051;27;20094;-80
2021/03/27 06:58:44;;;;;;;7.60;3.67;;;4.50;99.90;;;;;;5127829;27;20045;-78
2021/03/27 07:01:48;;;;;;;8.60;4.05;;;4.60;99.90;;;;;;5119494;27;20054;-78
2021/03/27 07:05:06;;;;;;;8.27;3.35;;;4.60;99.90;;;;;;5119399;27;20046;-79
2021/03/27 07:07:56;;;;;;;13.07;4.13;;;4.60;99.90;;;;;;5146488;27;20055;-78
2021/03/27 07:10:46;;;;;;;11.38;3.85;;;4.70;99.90;;;;;;5134512;27;20063;-76
2021/03/27 07:13:49;;;;;;;8.30;3.33;;;4.80;99.90;;;;;;5109023;28;20054;-82
2021/03/27 07:16:42;;;;;;;6.40;3.20;;;5.00;99.90;;;;;;5133190;27;20627;-83
2021/03/27 07:19:32;;;;;;;13.90;3.67;;;5.00;99.90;;;;;;5104760;28;20107;-81
2021/03/27 07:22:14;;;;;;;8.30;3.60;;;5.10;99.90;;;;;;5114171;28;20055;-80
2021/03/27 07:25:09;;;;;;;9.43;4.10;;;5.20;99.90;;;;;;5107097;28;20043;-78
2021/03/27 07:27:47;;;;;;;11.65;3.92;;;5.30;99.90;;;;;;5113843;27;20448;-80
2021/03/27 07:30:49;;;;;;;10.50;3.55;;;5.30;99.90;;;;;;5112224;27;20035;-79
2021/03/27 07:33:53;;;;;;;10.57;4.35;;;5.40;99.90;;;;;;5102695;27;21210;-81
2021/03/27 07:36:37;;;;;;;15.77;4.10;;;5.50;99.90;;;;;;5103752;28;20052;-81
2021/03/27 07:39:21;;;;;;;11.98;4.00;;;5.50;99.90;;;;;;5096403;28;20115;-80
2021/03/27 07:42:11;;;;;;;10.73;3.63;;;5.50;99.90;;;;;;5115255;27;20123;-76
2021/03/27 07:45:12;;;;;;;9.43;3.95;;;5.50;99.90;;;;;;5116803;27;20059;-82
2021/03/27 07:47:41;;;;;;;12.05;4.50;;;5.60;99.90;;;;;;5129216;27;20066;-80
2021/03/27 07:50:46;;;;;;;9.98;4.30;;;5.70;99.90;;;;;;5111971;28;20381;-82
2021/03/27 07:53:32;;;;;;;15.73;4.05;;;5.80;99.90;;;;;;5110886;27;20036;-79
2021/03/27 07:56:35;;;;;;;15.23;4.85;;;5.90;99.90;;;;;;5082413;28;20047;-78
2021/03/27 07:59:25;;;;;;;13.68;4.80;;;6.00;99.90;;;;;;5117233;27;20087;-78
2021/03/27 08:02:26;;;;;;;13.73;4.07;;;6.20;99.90;;;;;;5106050;28;20035;-81
2021/03/27 08:05:06;;;;;;;13.23;5.18;;;6.10;99.90;;;;;;5114545;27;20035;-80
2021/03/27 08:07:59;;;;;;;13.70;4.78;;;6.20;99.90;;;;;;5133263;27;20164;-77
2021/03/27 08:10:48;;;;;;;9.68;4.30;;;6.20;99.90;;;;;;5118005;27;20043;-79
2021/03/27 08:13:40;;;;;;;10.98;4.28;;;6.30;99.90;;;;;;5115048;27;20050;-79
2021/03/27 08:16:46;;;;;;;11.60;4.10;;;6.40;99.90;;;;;;5071137;28;20043;-82
2021/03/27 08:19:35;;;;;;;12.20;4.20;;;6.30;99.90;;;;;;5110676;28;20445;-82
2021/03/27 08:22:06;;;;;;;12.85;3.97;;;6.10;99.90;;;;;;5109960;28;20039;-77
2021/03/27 08:24:38;;;;;;;13.40;4.88;;;5.90;99.90;;;;;;5118288;27;20041;-79
2021/03/27 08:27:41;;;;;;;11.95;4.32;;;5.90;99.90;;;;;;5110999;27;20042;-80
2021/03/27 08:30:38;;;;;;;13.52;4.22;;;5.90;99.90;;;;;;5113844;28;20119;-82
2021/03/27 08:33:16;;;;;;;9.85;3.50;;;6.00;99.90;;;;;;5116438;27;20044;-80
2021/03/27 08:35:54;;;;;;;8.48;4.07;;;6.10;99.90;;;;;;5122918;27;20055;-80
2021/03/27 08:38:37;;;;;;;11.85;4.43;;;6.30;99.90;;;;;;5106460;28;20039;-78
2021/03/27 08:41:21;;;;;;;14.02;4.65;;;6.30;99.90;;;;;;5101114;28;20446;-81
2021/03/27 08:44:29;;;;;;;15.10;4.88;;;6.40;99.90;;;;;;5108526;28;20032;-82
2021/03/27 08:47:04;;;;;;;9.93;3.50;;;6.20;99.90;;;;;;5079159;27;20476;-86
2021/03/27 08:49:51;;;;;;;9.35;4.05;;;6.10;99.90;;;;;;5103807;28;20313;-80
2021/03/27 08:52:38;;;;;;;11.07;3.60;;;6.10;99.90;;;;;;5102347;28;20050;-79
2021/03/27 08:55:27;;;;;;;11.30;3.70;;;6.10;99.90;;;;;;5104187;28;20055;-81
2021/03/27 08:58:30;;;;;;;9.30;3.45;;;6.10;99.90;;;;;;5107713;28;20032;-80
2021/03/27 09:01:28;;;;;;;9.00;3.15;;;5.80;99.90;;;;;;5092926;28;20036;-81
2021/03/27 09:04:16;;;;;;;12.00;3.33;;;5.40;99.90;;;;;;5116535;27;20065;-79
2021/03/27 09:07:05;;;;;;;9.73;3.13;;;5.40;99.90;;;;;;5104551;28;20055;-81
2021/03/27 09:09:47;;;;;;;8.05;3.30;;;5.20;99.90;;;;;;5108428;28;20127;-77
2021/03/27 09:12:46;;;;;;;12.07;3.45;;;5.20;99.90;;;;;;5119338;27;20051;-76
2021/03/27 09:15:42;;;;;;;10.50;3.95;;;5.40;99.90;;;;;;5133089;27;20035;-80
2021/03/27 09:18:29;;;;;;;10.48;3.85;;;5.70;99.90;;;;;;5125299;27;20027;-78
2021/03/27 09:21:19;;;;;;;13.48;4.45;;;6.00;99.90;;;;;;5131705;27;20039;-79
2021/03/27 09:23:55;;;;;;;7.85;3.30;;;6.50;99.90;;;;;;5125601;27;20027;-78
2021/03/27 09:26:52;;;;;;;10.03;3.43;;;6.80;99.90;;;;;;5147071;27;20031;-82
2021/03/27 09:29:51;;;;;;;10.90;3.80;;;6.40;99.90;;;;;;5127669;27;20470;-83
2021/03/27 09:32:44;;;;;;;11.25;3.55;;;5.70;99.90;;;;;;5131788;27;20708;-84
2021/03/27 09:35:24;;;;;;;7.80;2.97;;;5.20;99.90;;;;;;5130028;27;20044;-85
2021/03/27 09:38:13;;;;;;;8.63;3.10;;;5.00;99.90;;;;;;5126698;27;20186;-86
2021/03/27 09:41:03;;;;;;;12.63;4.18;;;4.90;99.90;;;;;;5106104;27;20095;-79
2021/03/27 09:44:07;;;;;;;14.07;4.93;;;5.10;99.90;;;;;;5099639;28;20035;-82
2021/03/27 09:47:07;;;;;;;13.35;4.22;;;5.20;99.90;;;;;;5123300;27;20073;-81
2021/03/27 09:49:51;;;;;;;12.75;4.70;;;5.40;99.90;;;;;;5120205;27;20027;-81
2021/03/27 09:52:37;;;;;;;13.20;3.70;;;5.50;99.90;;;;;;5115208;27;20039;-79
2021/03/27 09:55:24;;;;;;;12.02;4.00;;;5.70;99.90;;;;;;5121767;27;20043;-80
2021/03/27 09:57:56;;;;;;;10.73;3.50;;;6.10;99.90;;;;;;5111253;27;20027;-78
2021/03/27 10:00:25;;;;;;;13.80;3.50;;;6.50;99.90;;;;;;5127937;27;20035;-77
2021/03/27 10:03:11;;;;;;;7.68;4.07;;;6.70;99.90;;;;;;5118781;27;20039;-81
2021/03/27 10:05:52;;;;;;;12.00;4.00;;;6.70;98.40;;;;;;5107023;27;20031;-83
2021/03/27 10:08:39;;;;;;;9.52;3.20;;;6.70;98.10;;;;;;5130062;27;20043;-85
2021/03/27 10:11:17;;;;;;;12.27;4.50;;;6.80;98.40;;;;;;5116312;27;20126;-83
2021/03/27 10:14:14;;;;;;;10.23;3.22;;;6.80;97.40;;;;;;5113848;27;20035;-84
2021/03/27 10:16:39;;;;;;;8.35;3.13;;;6.90;96.90;;;;;;5098105;27;20038;-82
2021/03/27 10:19:05;;;;;;;10.27;3.80;;;6.90;95.50;;;;;;5122684;27;20099;-80
2021/03/27 10:21:31;;;;;;;9.95;3.15;;;6.80;95.40;;;;;;5112585;27;20595;-85
2021/03/27 10:24:30;;;;;;;8.27;3.13;;;6.80;95.80;;;;;;5125943;27;20049;-77
2021/03/27 10:27:07;;;;;;;14.23;3.95;;;6.70;95.60;;;;;;5124162;27;20039;-82
2021/03/27 10:30:01;;;;;;;12.88;3.50;;;6.70;94.20;;;;;;5108140;28;20066;-81
2021/03/27 10:32:30;;;;;;;13.70;3.88;;;6.60;93.30;;;;;;5104990;28;20042;-84
2021/03/27 10:35:24;;;;;;;11.43;3.83;;;6.80;93.80;;;;;;5123964;27;20627;-83
2021/03/27 10:38:05;;;;;;;10.85;3.97;;;7.00;92.10;;;;;;5108285;28;20028;-80
2021/03/27 10:40:45;;;;;;;8.93;3.80;;;7.00;91.70;;;;;;5120738;28;20459;-81
2021/03/27 10:43:51;;;;;;;8.27;3.80;;;7.00;91.40;;;;;;5120084;27;20488;-80
2021/03/27 10:46:19;;;;;;;7.10;3.35;;;7.00;91.80;;;;;;5133480;27;20038;-82
2021/03/27 10:48:51;;;;;;;9.88;3.20;;;7.00;93.30;;;;;;5131481;27;20027;-80
2021/03/27 10:52:06;;;;;;;11.50;4.65;;;7.10;95.40;;;;;;5117510;27;20476;-83
2021/03/27 10:54:57;;;;;;;9.98;4.25;;;7.30;95.10;;;;;;5130935;27;20038;-82
2021/03/27 10:58:07;;;;;;;10.00;3.75;;;7.50;93.10;;;;;;5135896;27;20059;-81
2021/03/27 11:01:11;;;;;;;10.55;3.47;;;7.40;92.40;;;;;;5052318;28;20108;-82
2021/03/27 11:03:58;;;;;;;6.95;3.17;;;7.30;93.20;;;;;;5114973;28;20081;-83
2021/03/27 11:06:49;;;;;;;11.88;3.40;;;7.20;94.30;;;;;;5152749;27;20484;-85
2021/03/27 11:09:40;;;;;;;11.32;3.53;;;6.90;95.20;;;;;;5125030;27;20384;-84
2021/03/27 11:12:40;;;;;;;9.05;3.10;;;6.70;95.80;;;;;;5150621;27;20054;-83
2021/03/27 11:15:50;;;;;;;10.10;3.53;;;6.60;96.00;;;;;;5156637;27;20371;-85
2021/03/27 11:18:46;;;;;;;10.68;3.63;;;6.60;96.10;;;;;;5138773;27;20491;-82
2021/03/27 11:21:26;;;;;;;11.02;3.63;;;6.60;95.60;;;;;;5117817;27;20117;-83
2021/03/27 11:24:15;;;;;;;6.25;2.90;;;6.70;95.70;;;;;;5118041;27;20482;-82
2021/03/27 11:27:18;;;;;;;5.63;2.65;;;6.40;95.80;;;;;;5117193;27;20058;-79
2021/03/27 11:30:11;;;;;;;5.68;2.30;;;5.60;98.30;;;;;;5097591;28;20031;-81
2021/03/27 11:32:49;;;;;;;6.18;2.60;;;5.10;99.90;;;;;;5102782;27;20036;-81
2021/03/27 11:35:27;;;;;;;5.15;2.33;;;5.00;99.90;;;;;;5131028;27;20384;-80
2021/03/27 11:38:13;;;;;;;7.43;2.58;;;5.10;99.90;;;;;;5137985;27;20031;-82
2021/03/27 11:40:56;;;;;;;7.60;2.80;;;5.30;99.90;;;;;;5134085;27;20031;-79
2021/03/27 11:44:19;;;;;;;9.20;3.15;;;5.40;99.90;;;;;;5147953;27;20133;-85
2021/03/27 11:46:57;;;;;;;7.20;2.60;;;5.20;99.90;;;;;;5090098;27;20066;-82
2021/03/27 11:49:50;;;;;;;7.78;3.85;;;4.70;99.90;;;;;;5117983;27;20073;-85
2021/03/27 11:52:40;;;;;;;7.38;2.55;;;4.50;99.90;;;;;;5113827;28;20039;-82
2021/03/27 11:55:15;;;;;;;6.97;2.83;;;4.00;99.90;;;;;;5111693;28;20118;-80
2021/03/27 11:57:48;;;;;;;6.90;2.92;;;4.00;99.90;;;;;;5116698;27;20387;-77
2021/03/27 12:03:32;;;;;;;10.90;2.70;;;4.10;99.90;;;;;;5127257;27;20084;-79
2021/03/27 12:06:13;;;;;;;7.90;2.28;;;4.30;99.90;;;;;;5133175;27;20490;-79
2021/03/27 12:08:58;;;;;;;6.80;2.40;;;4.30;99.90;;;;;;5124601;27;20052;-79
2021/03/27 12:11:33;;;;;;;11.32;3.50;;;4.40;99.90;;;;;;5118484;27;20059;-80
2021/03/27 12:14:17;;;;;;;7.97;3.10;;;4.50;99.90;;;;;;5105209;27;20035;-78
2021/03/27 12:16:49;;;;;;;9.05;3.00;;;4.60;99.90;;;;;;5116541;27;20048;-79
2021/03/27 12:19:37;;;;;;;4.97;2.35;;;5.20;99.90;;;;;;5130837;27;20035;-78
2021/03/27 12:22:15;;;;;;;;;;;4.90;99.90;;;;;;5111908;27;20059;-82
2021/03/27 12:24:45;;;;;;;8.52;3.53;;;5.00;99.90;;;;;;5134748;27;19916;-77
2021/03/27 12:27:39;;;;;;;7.72;3.50;;;6.40;99.90;;;;;;5116669;27;20039;-81
2021/03/27 12:30:34;;;;;;;7.82;2.75;;;5.60;99.90;;;;;;5110876;27;20381;-79
2021/03/27 12:33:09;;;;;;;8.30;2.97;;;5.70;99.90;;;;;;5133665;27;20031;-80
2021/03/27 12:35:47;;;;;;;8.52;2.85;;;5.60;99.90;;;;;;5118261;27;20491;-79
2021/03/27 12:38:26;;;;;;;10.10;3.50;;;5.40;99.90;;;;;;5114539;27;20348;-80
2021/03/27 12:41:26;;;;;;;8.15;2.85;;;5.40;99.90;;;;;;5152056;27;20868;-78
2021/03/27 12:43:59;;;;;;;10.50;3.25;;;6.50;99.90;;;;;;5127627;27;20038;-79
2021/03/27 12:46:50;;;;;;;9.68;3.58;;;5.50;99.90;;;;;;5147186;27;20527;-80
2021/03/27 12:49:43;;;;;;;8.90;3.40;;;5.50;99.90;;;;;;5122578;27;20027;-80
2021/03/27 12:52:31;;;;;;;13.23;3.83;;;5.30;99.90;;;;;;5123886;27;20530;-80
2021/03/27 12:55:00;;;;;;;10.55;3.58;;;5.10;99.90;;;;;;5133307;27;20088;-82
2021/03/27 12:57:53;;;;;;;10.70;4.18;;;5.00;99.90;;;;;;5123307;27;20118;-78
2021/03/27 13:00:41;;;;;;;11.57;4.03;;;4.90;99.90;;;;;;5119476;27;20504;-78
2021/03/27 13:03:46;;;;;;;10.20;4.15;;;4.80;99.90;;;;;;5089534;27;20051;-78
2021/03/27 13:06:37;;;;;;;11.00;3.47;;;5.20;99.90;;;;;;5088021;27;20051;-82
2021/03/27 13:09:12;;;;;;;10.20;3.78;;;5.00;99.90;;;;;;5119180;27;20047;-79
2021/03/27 13:12:00;;;;;;;14.50;5.40;;;5.10;99.90;;;;;;5098054;27;20062;-81
2021/03/27 13:14:54;;;;;;;12.05;5.13;;;6.10;99.90;;;;;;5112145;27;20048;-80
2021/03/27 13:17:47;;;;;;;13.02;5.13;;;5.90;99.90;;;;;;5125477;27;20046;-80
2021/03/27 13:20:31;;;;;;;15.50;4.38;;;6.30;99.90;;;;;;5119882;27;20503;-80
2021/03/27 13:23:24;;;;;;;15.07;4.10;;;6.70;99.90;;;;;;5119306;27;20088;-78
2021/03/27 13:26:11;;;;;;;13.05;4.57;;;7.20;99.90;;;;;;5090650;27;20134;-82
2021/03/27 13:28:51;;;;;;;11.30;4.18;;;7.50;99.90;;;;;;5113355;27;20938;-82
2021/03/27 13:31:23;;;;;;;10.18;3.38;;;8.20;99.90;;;;;;5109453;27;20384;-80
2021/03/27 13:34:10;;;;;;;8.52;4.03;;;8.70;99.90;;;;;;5108406;27;20144;-83
2021/03/27 13:36:54;;;;;;;10.80;4.18;;;9.10;98.30;;;;;;5111029;27;20035;-80
2021/03/27 13:39:26;;;;;;;13.88;3.78;;;9.30;97.70;;;;;;5124028;27;20073;-80
2021/03/27 13:41:55;;;;;;;11.38;4.05;;;9.20;95.90;;;;;;5117760;27;20040;-84
2021/03/27 13:44:38;;;;;;;12.75;4.13;;;8.70;96.80;;;;;;5107173;27;20099;-80
2021/03/27 13:47:30;;;;;;;10.63;4.15;;;8.30;98.30;;;;;;5114960;27;20065;-83
2021/03/27 13:50:00;;;;;;;11.35;3.80;;;8.70;99.00;;;;;;5127226;27;20035;-79
2021/03/27 13:53:05;;;;;;;7.75;2.90;;;10.20;99.00;;;;;;5108551;27;20846;-83
2021/03/27 13:55:39;;;;;;;7.70;2.60;;;9.50;94.20;;;;;;5066454;27;20043;-83
2021/03/27 13:58:22;;;;;;;6.55;3.15;;;9.70;94.20;;;;;;5114004;27;20063;-82
2021/03/27 14:00:57;;;;;;;7.07;3.72;;;10.00;93.00;;;;;;5134569;27;20067;-82
2021/03/27 14:04:03;;;;;;;11.52;3.47;;;9.80;93.00;;;;;;5099035;28;20065;-79
2021/03/27 14:06:50;;;;;;;6.43;2.67;;;9.30;94.20;;;;;;5122424;27;20042;-79
2021/03/27 14:09:29;;;;;;;9.23;3.65;;;9.60;94.70;;;;;;5092616;28;20043;-80
2021/03/27 14:12:04;;;;;;;16.25;4.15;;;9.90;94.90;;;;;;5143389;27;20067;-79
2021/03/27 14:14:37;;;;;;;6.00;2.80;;;10.30;94.30;;;;;;5119830;27;20050;-81
2021/03/27 14:17:07;;;;;;;9.80;3.05;;;10.60;91.80;;;;;;5101762;28;20084;-79
2021/03/27 14:19:51;;;;;;;6.68;3.00;;;10.20;92.80;;;;;;5130887;27;20035;-84
2021/03/27 14:22:55;;;;;;;7.90;3.33;;;9.50;94.30;;;;;;5115482;28;20072;-81
2021/03/27 14:25:58;;;;;;;6.97;2.97;;;8.80;94.30;;;;;;5118489;28;20054;-81
2021/03/27 14:28:44;;;;;;;4.75;2.80;;;8.00;96.40;;;;;;5113211;28;20027;-82
2021/03/27 14:31:27;;;;;;;8.30;3.13;;;6.50;99.90;;;;;;5104792;28;20039;-81